Canyon, TX (79015)

8:27 PM CDT en Julio 27, 2015 (GMT -0500)
Spring Lake | | Change Station
CLOSE
Current Station
Estación meteorológica personal
Location: Canyon, TX
Altura: 3629 ft
Estaciones meteorológicas cercanas

Alt 3629 ft 35.03 °N, 101.93 °W | Updated 11 seconds ago

Despejado
Despejado
89.2 ° F
Sensación térmica 90 ° F
N
8.3
Viento Variable Viento desde SSO
Gusts 12.3 mph

Hoy
Alta -- | Baja -- ° F
--% Posibilidad de precipitaciones
Ayer
Alta -- | Baja -- ° F
Precip. -- pul
6:53 AM 8:54 PM
Gibosa creciente, 86% visible
Presión 29.74 pul
Visibilidad 10.0 Millas
Nubes Despejado
Índice de calor 90 ° F
Punto de rocío 62 ° F
Humedad 40%
Precipitaciones 0.00 pul
Espesor de la nieve No disponible.
UV 0.0 de una escala de 12
Polen 5.10 de una escala de 12
Calidad del aire No disponible.
Flu Activity No disponible.
METAR KAMA 280053Z 17017G23KT 10SM CLR 32/17 A2993 RMK AO2 PK WND 17027/0015 SLP071 T03220167

More Conditions Fewer Conditions

Presión 29.74 pul
Visibilidad 10.0 Millas
Nubes Despejado
Índice de calor 90 ° F
Punto de rocío 62 ° F
Humedad 40%
Precipitaciones 0.00 pul
Espesor de la nieve No disponible.
UV 0.0 de una escala de 12
Polen 5.10 de una escala de 12
Calidad del aire No disponible.
Flu Activity No disponible.
METAR KAMA 280053Z 17017G23KT 10SM CLR 32/17 A2993 RMK AO2 PK WND 17027/0015 SLP071 T03220167

More Conditions Fewer Conditions

10-Day Weather Forecast

×

Almanac

Astronomía

Jul. 27, 2015 Salida Puesta
Hora real
Crepúsculo civil
Crepúsculo náutico
Crepúsculo astronómico
Luna
Horas de luz
Horas de luz
Tomorrow will be .
, % of the Moon is Illuminated

Extremos de hoy

Máximos del estado Bajos del estado

Community

WunderPhotos

Upload Photos

1,841,753 ¡fotos cargadas!

WunderBlogs® & News

Nearby

Calidad del aire

  Calidad del aire Índice AQ Contaminante
Not available.

Grosos de nieve

Estación Profundido Altura

Actividad de terremotos

Ciudad Distance Mag. Tiempo y dato
Magnitud mínima muestra es 2,5.

Temperaturas de aguas costeras

Lugar Temperatura

Stations

Estaciones meteorológicas cercanas

Ubicación de la estación Temp. Vientos helados Punto de rocío Humedad Viento Precip. Alt Actualizado Tipo